sensor_id;sensor_type;location;lat;lon;timestamp;temperature;humidity
49184;DHT22;35021;49.214;12.270;2024-02-26T00:01:50;20.50;29.60
49184;DHT22;35021;49.214;12.270;2024-02-26T00:04:17;20.50;29.60
49184;DHT22;35021;49.214;12.270;2024-02-26T00:06:43;20.50;29.60
49184;DHT22;35021;49.214;12.270;2024-02-26T00:09:11;20.50;29.60
49184;DHT22;35021;49.214;12.270;2024-02-26T00:11:38;20.40;29.60
49184;DHT22;35021;49.214;12.270;2024-02-26T00:14:05;20.40;29.70
49184;DHT22;35021;49.214;12.270;2024-02-26T00:16:32;20.40;29.60
49184;DHT22;35021;49.214;12.270;2024-02-26T00:18:59;20.40;29.60
49184;DHT22;35021;49.214;12.270;2024-02-26T00:21:27;20.40;29.60
49184;DHT22;35021;49.214;12.270;2024-02-26T00:23:54;20.40;29.50
49184;DHT22;35021;49.214;12.270;2024-02-26T00:26:21;20.40;29.50
49184;DHT22;35021;49.214;12.270;2024-02-26T00:28:48;20.40;29.50
49184;DHT22;35021;49.214;12.270;2024-02-26T00:31:15;20.40;29.40
49184;DHT22;35021;49.214;12.270;2024-02-26T00:33:42;20.40;29.40
49184;DHT22;35021;49.214;12.270;2024-02-26T00:36:10;20.50;29.40
49184;DHT22;35021;49.214;12.270;2024-02-26T00:38:37;20.50;29.40
49184;DHT22;35021;49.214;12.270;2024-02-26T00:41:04;20.50;29.30
49184;DHT22;35021;49.214;12.270;2024-02-26T00:43:31;20.50;29.30
49184;DHT22;35021;49.214;12.270;2024-02-26T00:45:58;20.50;29.30
49184;DHT22;35021;49.214;12.270;2024-02-26T00:48:25;20.50;29.40
49184;DHT22;35021;49.214;12.270;2024-02-26T00:50:53;20.50;29.30
49184;DHT22;35021;49.214;12.270;2024-02-26T00:53:19;20.50;29.30
49184;DHT22;35021;49.214;12.270;2024-02-26T00:55:46;20.50;29.30
49184;DHT22;35021;49.214;12.270;2024-02-26T00:58:14;20.50;29.30
49184;DHT22;35021;49.214;12.270;2024-02-26T01:00:41;20.50;29.40
49184;DHT22;35021;49.214;12.270;2024-02-26T01:03:08;20.40;29.30
49184;DHT22;35021;49.214;12.270;2024-02-26T01:05:36;20.40;29.40
49184;DHT22;35021;49.214;12.270;2024-02-26T01:08:04;20.40;29.90
49184;DHT22;35021;49.214;12.270;2024-02-26T01:10:32;20.30;29.40
49184;DHT22;35021;49.214;12.270;2024-02-26T01:12:58;20.30;29.40
49184;DHT22;35021;49.214;12.270;2024-02-26T01:15:25;20.30;29.40
49184;DHT22;35021;49.214;12.270;2024-02-26T01:17:52;20.30;29.40
49184;DHT22;35021;49.214;12.270;2024-02-26T01:20:20;20.30;29.40
49184;DHT22;35021;49.214;12.270;2024-02-26T01:22:46;20.30;29.40
49184;DHT22;35021;49.214;12.270;2024-02-26T01:25:14;20.30;29.50
49184;DHT22;35021;49.214;12.270;2024-02-26T01:27:42;20.30;29.50
49184;DHT22;35021;49.214;12.270;2024-02-26T01:30:10;20.30;29.50
49184;DHT22;35021;49.214;12.270;2024-02-26T01:32:38;20.30;29.40
49184;DHT22;35021;49.214;12.270;2024-02-26T01:35:05;20.30;29.50
49184;DHT22;35021;49.214;12.270;2024-02-26T01:37:36;20.30;29.40
49184;DHT22;35021;49.214;12.270;2024-02-26T01:40:04;20.30;29.40
49184;DHT22;35021;49.214;12.270;2024-02-26T01:42:31;20.30;29.40
49184;DHT22;35021;49.214;12.270;2024-02-26T01:44:59;20.30;29.40
49184;DHT22;35021;49.214;12.270;2024-02-26T01:47:26;20.30;29.40
49184;DHT22;35021;49.214;12.270;2024-02-26T01:49:54;20.30;29.40
49184;DHT22;35021;49.214;12.270;2024-02-26T01:52:21;20.30;29.40
49184;DHT22;35021;49.214;12.270;2024-02-26T01:54:49;20.30;29.40
49184;DHT22;35021;49.214;12.270;2024-02-26T01:57:16;20.30;29.40
49184;DHT22;35021;49.214;12.270;2024-02-26T01:59:44;20.30;29.40
49184;DHT22;35021;49.214;12.270;2024-02-26T02:02:11;20.30;29.40
49184;DHT22;35021;49.214;12.270;2024-02-26T02:04:38;20.30;29.30
49184;DHT22;35021;49.214;12.270;2024-02-26T02:07:05;20.30;29.30
49184;DHT22;35021;49.214;12.270;2024-02-26T02:09:32;20.30;29.20
49184;DHT22;35021;49.214;12.270;2024-02-26T02:11:59;20.30;29.20
49184;DHT22;35021;49.214;12.270;2024-02-26T02:14:27;20.30;29.20
49184;DHT22;35021;49.214;12.270;2024-02-26T02:16:54;20.30;29.20
49184;DHT22;35021;49.214;12.270;2024-02-26T02:19:21;20.30;29.20
49184;DHT22;35021;49.214;12.270;2024-02-26T02:21:48;20.30;29.30
49184;DHT22;35021;49.214;12.270;2024-02-26T02:24:15;20.30;29.30
49184;DHT22;35021;49.214;12.270;2024-02-26T02:26:42;20.30;29.30
49184;DHT22;35021;49.214;12.270;2024-02-26T02:29:09;20.30;29.30
49184;DHT22;35021;49.214;12.270;2024-02-26T02:31:36;20.30;29.30
49184;DHT22;35021;49.214;12.270;2024-02-26T02:34:04;20.30;29.30
49184;DHT22;35021;49.214;12.270;2024-02-26T02:36:31;20.40;29.20
49184;DHT22;35021;49.214;12.270;2024-02-26T02:38:58;20.50;29.20
49184;DHT22;35021;49.214;12.270;2024-02-26T02:41:25;20.50;29.10
49184;DHT22;35021;49.214;12.270;2024-02-26T02:43:54;20.60;29.10
49184;DHT22;35021;49.214;12.270;2024-02-26T02:46:21;20.70;29.10
49184;DHT22;35021;49.214;12.270;2024-02-26T02:48:47;20.70;28.90
49184;DHT22;35021;49.214;12.270;2024-02-26T02:51:15;20.80;28.80
49184;DHT22;35021;49.214;12.270;2024-02-26T02:53:42;20.90;28.70
49184;DHT22;35021;49.214;12.270;2024-02-26T02:56:08;21.00;28.60
49184;DHT22;35021;49.214;12.270;2024-02-26T02:58:35;21.00;28.50
49184;DHT22;35021;49.214;12.270;2024-02-26T03:01:02;21.10;28.50
49184;DHT22;35021;49.214;12.270;2024-02-26T03:03:29;21.10;28.50
49184;DHT22;35021;49.214;12.270;2024-02-26T03:05:56;21.10;28.40
49184;DHT22;35021;49.214;12.270;2024-02-26T03:08:23;21.10;28.40
49184;DHT22;35021;49.214;12.270;2024-02-26T03:10:52;21.10;28.40
49184;DHT22;35021;49.214;12.270;2024-02-26T03:13:19;21.20;28.50
49184;DHT22;35021;49.214;12.270;2024-02-26T03:15:46;21.10;28.50
49184;DHT22;35021;49.214;12.270;2024-02-26T03:18:13;21.10;28.50
49184;DHT22;35021;49.214;12.270;2024-02-26T03:20:40;21.10;28.50
49184;DHT22;35021;49.214;12.270;2024-02-26T03:23:07;21.10;28.50
49184;DHT22;35021;49.214;12.270;2024-02-26T03:25:36;21.20;28.40
49184;DHT22;35021;49.214;12.270;2024-02-26T03:28:03;21.20;28.30
49184;DHT22;35021;49.214;12.270;2024-02-26T03:30:30;21.30;28.40
49184;DHT22;35021;49.214;12.270;2024-02-26T03:32:57;21.40;28.20
49184;DHT22;35021;49.214;12.270;2024-02-26T03:35:24;21.40;28.10
49184;DHT22;35021;49.214;12.270;2024-02-26T03:37:51;21.50;28.10
49184;DHT22;35021;49.214;12.270;2024-02-26T03:40:18;21.50;28.00
49184;DHT22;35021;49.214;12.270;2024-02-26T03:42:46;21.60;28.00
49184;DHT22;35021;49.214;12.270;2024-02-26T03:45:13;21.60;27.90
49184;DHT22;35021;49.214;12.270;2024-02-26T03:47:40;21.60;27.90
49184;DHT22;35021;49.214;12.270;2024-02-26T03:50:07;21.60;27.90
49184;DHT22;35021;49.214;12.270;2024-02-26T03:52:34;21.60;27.90
49184;DHT22;35021;49.214;12.270;2024-02-26T03:55:01;21.60;28.00
49184;DHT22;35021;49.214;12.270;2024-02-26T03:57:29;21.50;27.90
49184;DHT22;35021;49.214;12.270;2024-02-26T03:59:57;21.50;28.00
49184;DHT22;35021;49.214;12.270;2024-02-26T04:02:24;21.40;28.00
49184;DHT22;35021;49.214;12.270;2024-02-26T04:04:52;21.40;28.00
49184;DHT22;35021;49.214;12.270;2024-02-26T04:07:19;21.40;28.00
49184;DHT22;35021;49.214;12.270;2024-02-26T04:09:48;21.40;28.00
49184;DHT22;35021;49.214;12.270;2024-02-26T04:12:14;21.40;28.00
49184;DHT22;35021;49.214;12.270;2024-02-26T04:14:41;21.40;27.90
49184;DHT22;35021;49.214;12.270;2024-02-26T04:17:09;21.50;27.90
49184;DHT22;35021;49.214;12.270;2024-02-26T04:19:36;21.50;27.90
49184;DHT22;35021;49.214;12.270;2024-02-26T04:22:03;21.50;27.80
49184;DHT22;35021;49.214;12.270;2024-02-26T04:24:30;21.60;27.90
49184;DHT22;35021;49.214;12.270;2024-02-26T04:26:58;21.60;27.80
49184;DHT22;35021;49.214;12.270;2024-02-26T04:29:25;21.60;27.80
49184;DHT22;35021;49.214;12.270;2024-02-26T04:31:52;21.60;27.80
49184;DHT22;35021;49.214;12.270;2024-02-26T04:34:19;21.60;27.80
49184;DHT22;35021;49.214;12.270;2024-02-26T04:36:46;21.50;27.80
49184;DHT22;35021;49.214;12.270;2024-02-26T04:39:14;21.40;28.00
49184;DHT22;35021;49.214;12.270;2024-02-26T04:41:41;21.30;28.00
49184;DHT22;35021;49.214;12.270;2024-02-26T04:44:08;21.20;28.10
49184;DHT22;35021;49.214;12.270;2024-02-26T04:46:35;21.10;28.20
49184;DHT22;35021;49.214;12.270;2024-02-26T04:49:02;21.10;28.30
49184;DHT22;35021;49.214;12.270;2024-02-26T04:51:30;21.10;28.20
49184;DHT22;35021;49.214;12.270;2024-02-26T04:53:57;21.10;28.20
49184;DHT22;35021;49.214;12.270;2024-02-26T04:56:24;21.20;28.20
49184;DHT22;35021;49.214;12.270;2024-02-26T04:58:51;21.20;28.10
49184;DHT22;35021;49.214;12.270;2024-02-26T05:01:18;21.20;28.10
49184;DHT22;35021;49.214;12.270;2024-02-26T05:03:45;21.30;28.10
49184;DHT22;35021;49.214;12.270;2024-02-26T05:06:12;21.30;28.00
49184;DHT22;35021;49.214;12.270;2024-02-26T05:08:40;21.40;28.00
49184;DHT22;35021;49.214;12.270;2024-02-26T05:11:07;21.40;28.00
49184;DHT22;35021;49.214;12.270;2024-02-26T05:13:34;21.40;28.10
49184;DHT22;35021;49.214;12.270;2024-02-26T05:16:01;21.30;28.20
49184;DHT22;35021;49.214;12.270;2024-02-26T05:18:28;21.30;28.10
49184;DHT22;35021;49.214;12.270;2024-02-26T05:20:55;21.20;28.20
49184;DHT22;35021;49.214;12.270;2024-02-26T05:23:22;21.10;28.20
49184;DHT22;35021;49.214;12.270;2024-02-26T05:25:50;21.10;28.30
49184;DHT22;35021;49.214;12.270;2024-02-26T05:28:17;21.00;28.30
49184;DHT22;35021;49.214;12.270;2024-02-26T05:30:47;20.90;28.30
49184;DHT22;35021;49.214;12.270;2024-02-26T05:33:14;20.90;28.30
49184;DHT22;35021;49.214;12.270;2024-02-26T05:35:44;20.90;28.30
49184;DHT22;35021;49.214;12.270;2024-02-26T05:38:12;21.00;28.30
49184;DHT22;35021;49.214;12.270;2024-02-26T05:40:38;21.00;28.30
49184;DHT22;35021;49.214;12.270;2024-02-26T05:43:05;21.00;28.10
49184;DHT22;35021;49.214;12.270;2024-02-26T05:45:32;21.10;28.00
49184;DHT22;35021;49.214;12.270;2024-02-26T05:48:00;21.10;28.00
49184;DHT22;35021;49.214;12.270;2024-02-26T05:50:28;21.20;28.00
49184;DHT22;35021;49.214;12.270;2024-02-26T05:52:55;21.20;28.00
49184;DHT22;35021;49.214;12.270;2024-02-26T05:55:22;21.30;27.90
49184;DHT22;35021;49.214;12.270;2024-02-26T05:57:49;21.30;27.90
49184;DHT22;35021;49.214;12.270;2024-02-26T06:00:16;21.20;27.90
49184;DHT22;35021;49.214;12.270;2024-02-26T06:02:43;21.20;27.90
49184;DHT22;35021;49.214;12.270;2024-02-26T06:05:10;21.20;27.90
49184;DHT22;35021;49.214;12.270;2024-02-26T06:07:37;21.10;27.90
49184;DHT22;35021;49.214;12.270;2024-02-26T06:10:05;21.00;28.00
49184;DHT22;35021;49.214;12.270;2024-02-26T06:12:35;21.00;28.10
49184;DHT22;35021;49.214;12.270;2024-02-26T06:15:02;21.00;28.20
49184;DHT22;35021;49.214;12.270;2024-02-26T06:17:29;21.00;28.40
49184;DHT22;35021;49.214;12.270;2024-02-26T06:19:56;21.10;28.50
49184;DHT22;35021;49.214;12.270;2024-02-26T06:22:23;21.10;28.60
49184;DHT22;35021;49.214;12.270;2024-02-26T06:24:50;21.20;28.80
49184;DHT22;35021;49.214;12.270;2024-02-26T06:27:17;21.20;28.90
49184;DHT22;35021;49.214;12.270;2024-02-26T06:29:44;21.30;29.00
49184;DHT22;35021;49.214;12.270;2024-02-26T06:32:11;21.40;29.20
49184;DHT22;35021;49.214;12.270;2024-02-26T06:34:38;21.40;29.20
49184;DHT22;35021;49.214;12.270;2024-02-26T06:37:08;21.50;29.20
49184;DHT22;35021;49.214;12.270;2024-02-26T06:39:34;21.50;29.20
49184;DHT22;35021;49.214;12.270;2024-02-26T06:42:01;21.40;29.30
49184;DHT22;35021;49.214;12.270;2024-02-26T06:44:29;21.40;29.40
49184;DHT22;35021;49.214;12.270;2024-02-26T06:46:58;21.30;29.50
49184;DHT22;35021;49.214;12.270;2024-02-26T06:49:26;21.20;29.60
49184;DHT22;35021;49.214;12.270;2024-02-26T06:51:54;21.20;29.80
49184;DHT22;35021;49.214;12.270;2024-02-26T06:54:21;21.10;29.80
49184;DHT22;35021;49.214;12.270;2024-02-26T06:56:48;21.10;29.90
49184;DHT22;35021;49.214;12.270;2024-02-26T06:59:15;21.20;30.00
49184;DHT22;35021;49.214;12.270;2024-02-26T07:01:42;21.20;30.00
49184;DHT22;35021;49.214;12.270;2024-02-26T07:04:09;21.20;30.00
49184;DHT22;35021;49.214;12.270;2024-02-26T07:06:37;21.30;30.00
49184;DHT22;35021;49.214;12.270;2024-02-26T07:09:05;21.30;30.00
49184;DHT22;35021;49.214;12.270;2024-02-26T07:11:32;21.30;30.00
49184;DHT22;35021;49.214;12.270;2024-02-26T07:13:59;21.40;30.00
49184;DHT22;35021;49.214;12.270;2024-02-26T07:16:27;21.40;30.00
49184;DHT22;35021;49.214;12.270;2024-02-26T07:18:54;21.40;30.00
49184;DHT22;35021;49.214;12.270;2024-02-26T07:21:22;21.40;30.60
49184;DHT22;35021;49.214;12.270;2024-02-26T07:23:49;21.30;30.70
49184;DHT22;35021;49.214;12.270;2024-02-26T07:26:15;21.30;30.10
49184;DHT22;35021;49.214;12.270;2024-02-26T07:28:45;21.20;30.10
49184;DHT22;35021;49.214;12.270;2024-02-26T07:31:12;21.20;30.30
49184;DHT22;35021;49.214;12.270;2024-02-26T07:33:39;21.10;30.30
49184;DHT22;35021;49.214;12.270;2024-02-26T07:36:06;21.20;30.40
49184;DHT22;35021;49.214;12.270;2024-02-26T07:38:34;21.10;30.30
49184;DHT22;35021;49.214;12.270;2024-02-26T07:41:09;21.20;31.10
49184;DHT22;35021;49.214;12.270;2024-02-26T07:43:37;21.20;30.50
49184;DHT22;35021;49.214;12.270;2024-02-26T07:46:04;21.20;30.40
49184;DHT22;35021;49.214;12.270;2024-02-26T07:48:30;21.20;30.40
49184;DHT22;35021;49.214;12.270;2024-02-26T07:50:58;21.30;30.40
49184;DHT22;35021;49.214;12.270;2024-02-26T07:53:27;21.30;30.40
49184;DHT22;35021;49.214;12.270;2024-02-26T07:55:53;21.30;30.40
49184;DHT22;35021;49.214;12.270;2024-02-26T07:58:21;21.30;30.40
49184;DHT22;35021;49.214;12.270;2024-02-26T08:00:48;21.20;30.40
49184;DHT22;35021;49.214;12.270;2024-02-26T08:03:15;21.20;30.50
49184;DHT22;35021;49.214;12.270;2024-02-26T08:05:43;21.10;30.60
49184;DHT22;35021;49.214;12.270;2024-02-26T08:08:10;21.10;30.80
49184;DHT22;35021;49.214;12.270;2024-02-26T08:10:37;21.00;30.80
49184;DHT22;35021;49.214;12.270;2024-02-26T08:13:04;21.00;30.90
49184;DHT22;35021;49.214;12.270;2024-02-26T08:15:32;21.00;30.90
49184;DHT22;35021;49.214;12.270;2024-02-26T08:18:01;21.10;30.90
49184;DHT22;35021;49.214;12.270;2024-02-26T08:20:31;21.10;30.90
49184;DHT22;35021;49.214;12.270;2024-02-26T08:22:58;21.20;30.80
49184;DHT22;35021;49.214;12.270;2024-02-26T08:25:25;21.30;30.80
49184;DHT22;35021;49.214;12.270;2024-02-26T08:27:52;21.30;30.70
49184;DHT22;35021;49.214;12.270;2024-02-26T08:30:19;21.40;30.60
49184;DHT22;35021;49.214;12.270;2024-02-26T08:32:47;21.40;30.60
49184;DHT22;35021;49.214;12.270;2024-02-26T08:35:18;21.50;30.50
49184;DHT22;35021;49.214;12.270;2024-02-26T08:37:45;21.50;30.50
49184;DHT22;35021;49.214;12.270;2024-02-26T08:40:13;21.50;30.50
49184;DHT22;35021;49.214;12.270;2024-02-26T08:42:40;21.40;30.60
49184;DHT22;35021;49.214;12.270;2024-02-26T08:45:07;21.40;30.70
49184;DHT22;35021;49.214;12.270;2024-02-26T08:47:35;21.30;30.80
49184;DHT22;35021;49.214;12.270;2024-02-26T08:50:02;21.20;30.90
49184;DHT22;35021;49.214;12.270;2024-02-26T08:52:29;21.20;30.90
49184;DHT22;35021;49.214;12.270;2024-02-26T08:55:02;21.20;31.00
49184;DHT22;35021;49.214;12.270;2024-02-26T08:57:31;21.10;31.00
49184;DHT22;35021;49.214;12.270;2024-02-26T09:00:00;21.10;31.00
49184;DHT22;35021;49.214;12.270;2024-02-26T09:02:27;21.10;31.00
49184;DHT22;35021;49.214;12.270;2024-02-26T09:04:54;21.20;31.10
49184;DHT22;35021;49.214;12.270;2024-02-26T09:07:21;21.20;31.10
49184;DHT22;35021;49.214;12.270;2024-02-26T09:09:49;21.30;31.10
49184;DHT22;35021;49.214;12.270;2024-02-26T09:12:19;21.30;31.00
49184;DHT22;35021;49.214;12.270;2024-02-26T09:14:46;21.30;31.00
49184;DHT22;35021;49.214;12.270;2024-02-26T09:17:13;21.30;31.00
49184;DHT22;35021;49.214;12.270;2024-02-26T09:19:40;21.40;31.00
49184;DHT22;35021;49.214;12.270;2024-02-26T09:22:09;21.40;31.10
49184;DHT22;35021;49.214;12.270;2024-02-26T09:24:36;21.40;31.10
49184;DHT22;35021;49.214;12.270;2024-02-26T09:27:03;21.40;31.10
49184;DHT22;35021;49.214;12.270;2024-02-26T09:29:30;21.40;31.30
49184;DHT22;35021;49.214;12.270;2024-02-26T09:31:57;21.30;31.40
49184;DHT22;35021;49.214;12.270;2024-02-26T09:34:24;21.30;31.50
49184;DHT22;35021;49.214;12.270;2024-02-26T09:36:51;21.30;32.30
49184;DHT22;35021;49.214;12.270;2024-02-26T09:39:18;21.20;31.60
49184;DHT22;35021;49.214;12.270;2024-02-26T09:41:48;21.20;31.60
49184;DHT22;35021;49.214;12.270;2024-02-26T09:44:20;21.20;31.60
49184;DHT22;35021;49.214;12.270;2024-02-26T09:46:48;21.20;31.70
49184;DHT22;35021;49.214;12.270;2024-02-26T09:49:18;21.30;31.80
49184;DHT22;35021;49.214;12.270;2024-02-26T09:51:47;21.30;31.80
49184;DHT22;35021;49.214;12.270;2024-02-26T09:54:15;21.40;31.80
49184;DHT22;35021;49.214;12.270;2024-02-26T09:56:43;21.40;31.70
49184;DHT22;35021;49.214;12.270;2024-02-26T09:59:25;21.40;31.70
49184;DHT22;35021;49.214;12.270;2024-02-26T10:01:53;21.50;31.70
49184;DHT22;35021;49.214;12.270;2024-02-26T10:04:20;21.50;31.70
49184;DHT22;35021;49.214;12.270;2024-02-26T10:06:48;21.40;31.70
49184;DHT22;35021;49.214;12.270;2024-02-26T10:09:15;21.40;31.80
49184;DHT22;35021;49.214;12.270;2024-02-26T10:11:43;21.40;31.80
49184;DHT22;35021;49.214;12.270;2024-02-26T10:14:10;21.40;31.90
49184;DHT22;35021;49.214;12.270;2024-02-26T10:16:38;21.40;32.00
49184;DHT22;35021;49.214;12.270;2024-02-26T10:19:05;21.40;31.90
49184;DHT22;35021;49.214;12.270;2024-02-26T10:21:32;21.40;31.80
49184;DHT22;35021;49.214;12.270;2024-02-26T10:23:59;21.40;31.60
49184;DHT22;35021;49.214;12.270;2024-02-26T10:26:27;21.50;31.60
49184;DHT22;35021;49.214;12.270;2024-02-26T10:28:54;21.50;31.50
49184;DHT22;35021;49.214;12.270;2024-02-26T10:31:26;21.60;31.40
49184;DHT22;35021;49.214;12.270;2024-02-26T10:33:55;21.70;31.30
49184;DHT22;35021;49.214;12.270;2024-02-26T10:36:22;21.70;31.20
49184;DHT22;35021;49.214;12.270;2024-02-26T10:38:54;21.80;31.20
49184;DHT22;35021;49.214;12.270;2024-02-26T10:41:22;21.90;31.10
49184;DHT22;35021;49.214;12.270;2024-02-26T10:43:49;21.90;31.10
49184;DHT22;35021;49.214;12.270;2024-02-26T10:46:17;21.90;31.00
49184;DHT22;35021;49.214;12.270;2024-02-26T10:48:51;22.00;30.90
49184;DHT22;35021;49.214;12.270;2024-02-26T10:51:29;22.00;30.90
49184;DHT22;35021;49.214;12.270;2024-02-26T10:53:57;22.10;30.80
49184;DHT22;35021;49.214;12.270;2024-02-26T10:56:28;22.10;30.70
49184;DHT22;35021;49.214;12.270;2024-02-26T10:58:55;22.20;30.70
49184;DHT22;35021;49.214;12.270;2024-02-26T11:01:24;22.20;30.60
49184;DHT22;35021;49.214;12.270;2024-02-26T11:03:52;22.20;30.50
49184;DHT22;35021;49.214;12.270;2024-02-26T11:06:20;22.30;30.50
49184;DHT22;35021;49.214;12.270;2024-02-26T11:08:51;22.30;30.50
49184;DHT22;35021;49.214;12.270;2024-02-26T11:11:18;22.40;30.50
49184;DHT22;35021;49.214;12.270;2024-02-26T11:13:46;22.40;30.50
49184;DHT22;35021;49.214;12.270;2024-02-26T11:16:19;22.40;30.40
49184;DHT22;35021;49.214;12.270;2024-02-26T11:18:47;22.40;30.40
49184;DHT22;35021;49.214;12.270;2024-02-26T11:21:15;22.50;30.40
49184;DHT22;35021;49.214;12.270;2024-02-26T11:23:42;22.50;30.50
49184;DHT22;35021;49.214;12.270;2024-02-26T11:26:09;22.60;30.60
49184;DHT22;35021;49.214;12.270;2024-02-26T11:28:37;22.60;30.50
49184;DHT22;35021;49.214;12.270;2024-02-26T11:31:05;22.60;30.40
49184;DHT22;35021;49.214;12.270;2024-02-26T11:33:34;22.70;30.40
49184;DHT22;35021;49.214;12.270;2024-02-26T11:36:07;22.70;30.30
49184;DHT22;35021;49.214;12.270;2024-02-26T11:38:34;22.70;30.30
49184;DHT22;35021;49.214;12.270;2024-02-26T11:41:02;22.80;30.30
49184;DHT22;35021;49.214;12.270;2024-02-26T11:46:30;22.80;30.20
49184;DHT22;35021;49.214;12.270;2024-02-26T11:49:02;22.90;30.10
49184;DHT22;35021;49.214;12.270;2024-02-26T11:51:34;22.90;30.00
49184;DHT22;35021;49.214;12.270;2024-02-26T11:54:01;23.00;30.00
49184;DHT22;35021;49.214;12.270;2024-02-26T11:56:29;23.00;29.90
49184;DHT22;35021;49.214;12.270;2024-02-26T11:59:00;23.10;29.80
49184;DHT22;35021;49.214;12.270;2024-02-26T12:01:40;23.10;29.80
49184;DHT22;35021;49.214;12.270;2024-02-26T12:04:11;23.10;29.70
49184;DHT22;35021;49.214;12.270;2024-02-26T12:09:09;23.10;29.80
49184;DHT22;35021;49.214;12.270;2024-02-26T12:11:39;23.10;29.80
49184;DHT22;35021;49.214;12.270;2024-02-26T12:14:07;23.10;29.90
49184;DHT22;35021;49.214;12.270;2024-02-26T12:16:38;23.00;30.00
49184;DHT22;35021;49.214;12.270;2024-02-26T12:19:05;23.00;30.10
49184;DHT22;35021;49.214;12.270;2024-02-26T12:21:36;22.90;30.10
49184;DHT22;35021;49.214;12.270;2024-02-26T12:24:13;22.90;30.20
49184;DHT22;35021;49.214;12.270;2024-02-26T12:26:42;22.90;30.20
49184;DHT22;35021;49.214;12.270;2024-02-26T12:29:09;22.90;30.20
49184;DHT22;35021;49.214;12.270;2024-02-26T12:31:37;23.00;30.30
49184;DHT22;35021;49.214;12.270;2024-02-26T12:34:06;23.00;30.30
49184;DHT22;35021;49.214;12.270;2024-02-26T12:36:33;23.10;30.30
49184;DHT22;35021;49.214;12.270;2024-02-26T12:39:02;23.10;30.30
49184;DHT22;35021;49.214;12.270;2024-02-26T12:41:29;23.10;30.30
49184;DHT22;35021;49.214;12.270;2024-02-26T12:43:57;23.10;30.40
49184;DHT22;35021;49.214;12.270;2024-02-26T12:46:25;23.10;30.40
49184;DHT22;35021;49.214;12.270;2024-02-26T12:48:52;23.10;30.40
49184;DHT22;35021;49.214;12.270;2024-02-26T12:51:21;23.10;30.40
49184;DHT22;35021;49.214;12.270;2024-02-26T12:53:48;23.00;30.50
49184;DHT22;35021;49.214;12.270;2024-02-26T12:56:17;22.90;30.50
49184;DHT22;35021;49.214;12.270;2024-02-26T12:58:44;22.90;30.60
49184;DHT22;35021;49.214;12.270;2024-02-26T13:01:13;22.80;30.70
49184;DHT22;35021;49.214;12.270;2024-02-26T13:03:41;22.70;30.80
49184;DHT22;35021;49.214;12.270;2024-02-26T13:06:08;22.70;30.80
49184;DHT22;35021;49.214;12.270;2024-02-26T13:08:36;22.70;30.90
49184;DHT22;35021;49.214;12.270;2024-02-26T13:11:03;22.70;30.90
49184;DHT22;35021;49.214;12.270;2024-02-26T13:13:30;22.70;31.70
49184;DHT22;35021;49.214;12.270;2024-02-26T13:16:05;22.80;30.90
49184;DHT22;35021;49.214;12.270;2024-02-26T13:18:33;22.80;31.00
49184;DHT22;35021;49.214;12.270;2024-02-26T13:21:10;22.80;30.80
49184;DHT22;35021;49.214;12.270;2024-02-26T13:23:41;22.90;30.90
49184;DHT22;35021;49.214;12.270;2024-02-26T13:26:09;22.90;30.80
49184;DHT22;35021;49.214;12.270;2024-02-26T13:28:38;23.00;30.80
49184;DHT22;35021;49.214;12.270;2024-02-26T13:31:05;23.00;30.80
49184;DHT22;35021;49.214;12.270;2024-02-26T13:33:34;23.10;30.80
49184;DHT22;35021;49.214;12.270;2024-02-26T13:36:02;23.10;30.80
49184;DHT22;35021;49.214;12.270;2024-02-26T13:38:29;23.10;30.80
49184;DHT22;35021;49.214;12.270;2024-02-26T13:40:56;23.10;30.80
49184;DHT22;35021;49.214;12.270;2024-02-26T13:43:23;23.10;30.80
49184;DHT22;35021;49.214;12.270;2024-02-26T13:45:50;23.10;30.80
49184;DHT22;35021;49.214;12.270;2024-02-26T13:48:17;23.00;30.90
49184;DHT22;35021;49.214;12.270;2024-02-26T13:50:45;22.90;31.00
49184;DHT22;35021;49.214;12.270;2024-02-26T13:53:13;22.80;31.10
49184;DHT22;35021;49.214;12.270;2024-02-26T13:55:41;22.80;31.10
49184;DHT22;35021;49.214;12.270;2024-02-26T13:58:11;22.80;31.10
49184;DHT22;35021;49.214;12.270;2024-02-26T14:00:39;22.90;31.20
49184;DHT22;35021;49.214;12.270;2024-02-26T14:03:07;22.90;31.00
49184;DHT22;35021;49.214;12.270;2024-02-26T14:05:34;23.00;31.00
49184;DHT22;35021;49.214;12.270;2024-02-26T14:08:01;23.10;30.90
49184;DHT22;35021;49.214;12.270;2024-02-26T14:10:29;23.10;30.80
49184;DHT22;35021;49.214;12.270;2024-02-26T14:12:57;23.20;30.70
49184;DHT22;35021;49.214;12.270;2024-02-26T14:15:24;23.30;30.70
49184;DHT22;35021;49.214;12.270;2024-02-26T14:17:52;23.30;30.60
49184;DHT22;35021;49.214;12.270;2024-02-26T14:20:23;23.30;30.60
49184;DHT22;35021;49.214;12.270;2024-02-26T14:22:51;23.20;30.60
49184;DHT22;35021;49.214;12.270;2024-02-26T14:25:20;23.20;30.70
49184;DHT22;35021;49.214;12.270;2024-02-26T14:27:47;23.10;30.70
49184;DHT22;35021;49.214;12.270;2024-02-26T14:30:14;23.10;30.90
49184;DHT22;35021;49.214;12.270;2024-02-26T14:32:41;23.00;31.00
49184;DHT22;35021;49.214;12.270;2024-02-26T14:35:09;22.90;31.00
49184;DHT22;35021;49.214;12.270;2024-02-26T14:37:43;22.90;31.00
49184;DHT22;35021;49.214;12.270;2024-02-26T14:40:15;22.90;31.00
49184;DHT22;35021;49.214;12.270;2024-02-26T14:42:42;23.00;31.10
49184;DHT22;35021;49.214;12.270;2024-02-26T14:45:09;23.00;31.00
49184;DHT22;35021;49.214;12.270;2024-02-26T14:47:38;23.00;31.00
49184;DHT22;35021;49.214;12.270;2024-02-26T14:50:05;23.10;31.00
49184;DHT22;35021;49.214;12.270;2024-02-26T14:52:33;23.20;31.00
49184;DHT22;35021;49.214;12.270;2024-02-26T14:55:00;23.20;30.80
49184;DHT22;35021;49.214;12.270;2024-02-26T14:57:27;23.30;30.80
49184;DHT22;35021;49.214;12.270;2024-02-26T14:59:54;23.30;30.80
49184;DHT22;35021;49.214;12.270;2024-02-26T15:02:21;23.30;30.90
49184;DHT22;35021;49.214;12.270;2024-02-26T15:04:48;23.30;31.00
49184;DHT22;35021;49.214;12.270;2024-02-26T15:07:15;23.20;31.00
49184;DHT22;35021;49.214;12.270;2024-02-26T15:09:43;23.20;31.10
49184;DHT22;35021;49.214;12.270;2024-02-26T15:12:10;23.10;31.10
49184;DHT22;35021;49.214;12.270;2024-02-26T15:14:37;23.10;31.90
49184;DHT22;35021;49.214;12.270;2024-02-26T15:17:05;23.10;31.30
49184;DHT22;35021;49.214;12.270;2024-02-26T15:19:37;23.10;31.30
49184;DHT22;35021;49.214;12.270;2024-02-26T15:22:04;23.10;31.30
49184;DHT22;35021;49.214;12.270;2024-02-26T15:24:31;23.10;31.30